sensor_id;sensor_type;location;lat;lon;timestamp;temperature;humidity
20400;DHT22;10359;53.596;22.520;2022-09-09T00:02:08;9.70;99.90
20400;DHT22;10359;53.596;22.520;2022-09-09T00:04:47;9.70;99.90
20400;DHT22;10359;53.596;22.520;2022-09-09T00:07:24;9.70;99.90
20400;DHT22;10359;53.596;22.520;2022-09-09T00:10:03;9.70;99.90
20400;DHT22;10359;53.596;22.520;2022-09-09T00:12:37;9.70;99.90
20400;DHT22;10359;53.596;22.520;2022-09-09T00:15:26;9.70;99.90
20400;DHT22;10359;53.596;22.520;2022-09-09T00:18:11;9.80;99.90
20400;DHT22;10359;53.596;22.520;2022-09-09T00:20:46;9.70;99.90
20400;DHT22;10359;53.596;22.520;2022-09-09T00:23:24;9.80;99.90
20400;DHT22;10359;53.596;22.520;2022-09-09T00:26:01;9.70;99.90
20400;DHT22;10359;53.596;22.520;2022-09-09T00:28:36;9.70;99.90
20400;DHT22;10359;53.596;22.520;2022-09-09T00:31:12;9.70;99.90
20400;DHT22;10359;53.596;22.520;2022-09-09T00:33:44;9.70;99.90
20400;DHT22;10359;53.596;22.520;2022-09-09T00:36:18;9.70;99.90
20400;DHT22;10359;53.596;22.520;2022-09-09T00:38:49;9.70;99.90
20400;DHT22;10359;53.596;22.520;2022-09-09T00:41:26;9.60;99.90
20400;DHT22;10359;53.596;22.520;2022-09-09T00:44:03;9.70;99.90
20400;DHT22;10359;53.596;22.520;2022-09-09T00:46:50;9.60;99.90
20400;DHT22;10359;53.596;22.520;2022-09-09T00:49:30;9.70;99.90
20400;DHT22;10359;53.596;22.520;2022-09-09T00:52:09;9.60;99.90
20400;DHT22;10359;53.596;22.520;2022-09-09T00:54:47;9.60;99.90
20400;DHT22;10359;53.596;22.520;2022-09-09T00:57:26;9.60;99.90
20400;DHT22;10359;53.596;22.520;2022-09-09T01:00:00;9.60;99.90
20400;DHT22;10359;53.596;22.520;2022-09-09T01:02:38;9.60;99.90
20400;DHT22;10359;53.596;22.520;2022-09-09T01:05:13;9.60;99.90
20400;DHT22;10359;53.596;22.520;2022-09-09T01:07:47;9.60;99.90
20400;DHT22;10359;53.596;22.520;2022-09-09T01:10:30;9.60;99.90
20400;DHT22;10359;53.596;22.520;2022-09-09T01:13:13;9.60;99.90
20400;DHT22;10359;53.596;22.520;2022-09-09T01:15:44;9.60;99.90
20400;DHT22;10359;53.596;22.520;2022-09-09T01:18:17;9.60;99.90
20400;DHT22;10359;53.596;22.520;2022-09-09T01:20:53;9.50;99.90
20400;DHT22;10359;53.596;22.520;2022-09-09T01:23:35;9.50;99.90
20400;DHT22;10359;53.596;22.520;2022-09-09T01:26:19;9.50;99.90
20400;DHT22;10359;53.596;22.520;2022-09-09T01:28:50;9.50;99.90
20400;DHT22;10359;53.596;22.520;2022-09-09T01:31:23;9.40;99.90
20400;DHT22;10359;53.596;22.520;2022-09-09T01:33:55;9.40;99.90
20400;DHT22;10359;53.596;22.520;2022-09-09T01:36:29;9.40;99.90
20400;DHT22;10359;53.596;22.520;2022-09-09T01:39:01;9.40;99.90
20400;DHT22;10359;53.596;22.520;2022-09-09T01:41:31;9.40;99.90
20400;DHT22;10359;53.596;22.520;2022-09-09T01:44:01;9.50;99.90
20400;DHT22;10359;53.596;22.520;2022-09-09T01:46:30;9.40;99.90
20400;DHT22;10359;53.596;22.520;2022-09-09T01:49:00;9.40;99.90
20400;DHT22;10359;53.596;22.520;2022-09-09T01:51:30;9.40;99.90
20400;DHT22;10359;53.596;22.520;2022-09-09T01:54:00;9.40;99.90
20400;DHT22;10359;53.596;22.520;2022-09-09T01:56:40;9.40;99.90
20400;DHT22;10359;53.596;22.520;2022-09-09T01:59:28;9.30;99.90
20400;DHT22;10359;53.596;22.520;2022-09-09T02:02:10;9.30;99.90
20400;DHT22;10359;53.596;22.520;2022-09-09T02:04:42;9.30;99.90
20400;DHT22;10359;53.596;22.520;2022-09-09T02:07:23;9.30;99.90
20400;DHT22;10359;53.596;22.520;2022-09-09T02:10:00;9.30;99.90
20400;DHT22;10359;53.596;22.520;2022-09-09T02:12:31;9.30;99.90
20400;DHT22;10359;53.596;22.520;2022-09-09T02:15:04;9.30;99.90
20400;DHT22;10359;53.596;22.520;2022-09-09T02:17:36;9.30;99.90
20400;DHT22;10359;53.596;22.520;2022-09-09T02:20:08;9.30;99.90
20400;DHT22;10359;53.596;22.520;2022-09-09T02:22:40;9.30;99.90
20400;DHT22;10359;53.596;22.520;2022-09-09T02:25:13;9.20;99.90
20400;DHT22;10359;53.596;22.520;2022-09-09T02:27:46;9.20;99.90
20400;DHT22;10359;53.596;22.520;2022-09-09T02:30:16;9.20;99.90
20400;DHT22;10359;53.596;22.520;2022-09-09T02:32:46;9.10;99.90
20400;DHT22;10359;53.596;22.520;2022-09-09T02:35:19;9.10;99.90
20400;DHT22;10359;53.596;22.520;2022-09-09T02:37:51;9.00;99.90
20400;DHT22;10359;53.596;22.520;2022-09-09T02:40:21;9.00;99.90
20400;DHT22;10359;53.596;22.520;2022-09-09T02:42:51;9.00;99.90
20400;DHT22;10359;53.596;22.520;2022-09-09T02:45:25;9.00;99.90
20400;DHT22;10359;53.596;22.520;2022-09-09T02:48:02;9.00;99.90
20400;DHT22;10359;53.596;22.520;2022-09-09T02:50:34;9.00;99.90
20400;DHT22;10359;53.596;22.520;2022-09-09T02:53:09;9.00;99.90
20400;DHT22;10359;53.596;22.520;2022-09-09T02:55:41;9.00;99.90
20400;DHT22;10359;53.596;22.520;2022-09-09T02:58:18;9.00;99.90
20400;DHT22;10359;53.596;22.520;2022-09-09T03:00:51;9.00;99.90
20400;DHT22;10359;53.596;22.520;2022-09-09T03:03:21;9.00;99.90
20400;DHT22;10359;53.596;22.520;2022-09-09T03:05:50;9.00;99.90
20400;DHT22;10359;53.596;22.520;2022-09-09T03:08:19;9.00;99.90
20400;DHT22;10359;53.596;22.520;2022-09-09T03:10:48;9.00;99.90
20400;DHT22;10359;53.596;22.520;2022-09-09T03:13:18;9.00;99.90
20400;DHT22;10359;53.596;22.520;2022-09-09T03:15:48;9.00;99.90
20400;DHT22;10359;53.596;22.520;2022-09-09T03:18:17;9.10;99.90
20400;DHT22;10359;53.596;22.520;2022-09-09T03:20:49;9.10;99.90
20400;DHT22;10359;53.596;22.520;2022-09-09T03:23:18;9.10;99.90
20400;DHT22;10359;53.596;22.520;2022-09-09T03:25:48;9.20;99.90
20400;DHT22;10359;53.596;22.520;2022-09-09T03:28:18;9.20;99.90
20400;DHT22;10359;53.596;22.520;2022-09-09T03:30:48;9.20;99.90
20400;DHT22;10359;53.596;22.520;2022-09-09T03:33:17;9.20;99.90
20400;DHT22;10359;53.596;22.520;2022-09-09T03:35:46;9.30;99.90
20400;DHT22;10359;53.596;22.520;2022-09-09T03:38:16;9.30;99.90
20400;DHT22;10359;53.596;22.520;2022-09-09T03:40:50;9.40;99.90
20400;DHT22;10359;53.596;22.520;2022-09-09T03:43:22;9.40;99.90
20400;DHT22;10359;53.596;22.520;2022-09-09T03:45:52;9.40;99.90
20400;DHT22;10359;53.596;22.520;2022-09-09T03:48:24;9.50;99.90
20400;DHT22;10359;53.596;22.520;2022-09-09T03:51:02;9.50;99.90
20400;DHT22;10359;53.596;22.520;2022-09-09T03:53:30;9.60;99.90
20400;DHT22;10359;53.596;22.520;2022-09-09T03:56:01;9.60;99.90
20400;DHT22;10359;53.596;22.520;2022-09-09T03:58:32;9.60;99.90
20400;DHT22;10359;53.596;22.520;2022-09-09T04:01:03;9.60;99.90
20400;DHT22;10359;53.596;22.520;2022-09-09T04:03:32;9.60;99.90
20400;DHT22;10359;53.596;22.520;2022-09-09T04:06:03;9.60;99.90
20400;DHT22;10359;53.596;22.520;2022-09-09T04:08:32;9.60;99.90
20400;DHT22;10359;53.596;22.520;2022-09-09T04:11:01;9.60;99.90
20400;DHT22;10359;53.596;22.520;2022-09-09T04:13:37;9.60;99.90
20400;DHT22;10359;53.596;22.520;2022-09-09T04:16:08;9.60;99.90
20400;DHT22;10359;53.596;22.520;2022-09-09T04:18:38;9.60;99.90
20400;DHT22;10359;53.596;22.520;2022-09-09T04:21:09;9.60;99.90
20400;DHT22;10359;53.596;22.520;2022-09-09T04:23:39;9.60;99.90
20400;DHT22;10359;53.596;22.520;2022-09-09T04:26:08;9.60;99.90
20400;DHT22;10359;53.596;22.520;2022-09-09T04:28:39;9.60;99.90
20400;DHT22;10359;53.596;22.520;2022-09-09T04:31:09;9.70;99.90
20400;DHT22;10359;53.596;22.520;2022-09-09T04:33:38;9.80;99.90
20400;DHT22;10359;53.596;22.520;2022-09-09T04:36:07;9.80;99.90
20400;DHT22;10359;53.596;22.520;2022-09-09T04:38:36;9.80;99.90
20400;DHT22;10359;53.596;22.520;2022-09-09T04:41:06;9.90;99.90
20400;DHT22;10359;53.596;22.520;2022-09-09T04:43:39;9.80;99.90
20400;DHT22;10359;53.596;22.520;2022-09-09T04:46:08;9.80;99.90
20400;DHT22;10359;53.596;22.520;2022-09-09T04:48:38;9.90;99.90
20400;DHT22;10359;53.596;22.520;2022-09-09T04:51:09;10.00;99.90
20400;DHT22;10359;53.596;22.520;2022-09-09T04:53:39;10.00;99.90
20400;DHT22;10359;53.596;22.520;2022-09-09T04:56:10;10.10;99.90
20400;DHT22;10359;53.596;22.520;2022-09-09T04:58:43;10.10;99.90
20400;DHT22;10359;53.596;22.520;2022-09-09T05:01:14;10.10;99.90
20400;DHT22;10359;53.596;22.520;2022-09-09T05:03:45;10.20;99.90
20400;DHT22;10359;53.596;22.520;2022-09-09T05:06:15;10.20;99.90
20400;DHT22;10359;53.596;22.520;2022-09-09T05:08:44;10.30;99.90
20400;DHT22;10359;53.596;22.520;2022-09-09T05:11:15;10.30;99.90
20400;DHT22;10359;53.596;22.520;2022-09-09T05:13:46;10.30;99.90
20400;DHT22;10359;53.596;22.520;2022-09-09T05:16:15;10.30;99.90
20400;DHT22;10359;53.596;22.520;2022-09-09T05:18:45;10.30;99.90
20400;DHT22;10359;53.596;22.520;2022-09-09T05:21:15;10.40;99.90
20400;DHT22;10359;53.596;22.520;2022-09-09T05:23:45;10.40;99.90
20400;DHT22;10359;53.596;22.520;2022-09-09T05:26:15;10.50;99.90
20400;DHT22;10359;53.596;22.520;2022-09-09T05:28:46;10.30;99.90
20400;DHT22;10359;53.596;22.520;2022-09-09T05:31:17;10.50;99.90
20400;DHT22;10359;53.596;22.520;2022-09-09T05:33:47;10.60;99.90
20400;DHT22;10359;53.596;22.520;2022-09-09T05:36:17;10.60;99.90
20400;DHT22;10359;53.596;22.520;2022-09-09T05:38:47;10.60;99.90
20400;DHT22;10359;53.596;22.520;2022-09-09T05:41:16;10.80;99.90
20400;DHT22;10359;53.596;22.520;2022-09-09T05:43:49;10.80;99.90
20400;DHT22;10359;53.596;22.520;2022-09-09T05:46:19;10.90;99.90
20400;DHT22;10359;53.596;22.520;2022-09-09T05:48:49;10.90;99.90
20400;DHT22;10359;53.596;22.520;2022-09-09T05:51:19;11.00;99.90
20400;DHT22;10359;53.596;22.520;2022-09-09T05:53:49;10.80;99.90
20400;DHT22;10359;53.596;22.520;2022-09-09T05:56:20;11.00;99.90
20400;DHT22;10359;53.596;22.520;2022-09-09T05:58:54;11.10;99.90
20400;DHT22;10359;53.596;22.520;2022-09-09T06:01:25;11.10;99.90
20400;DHT22;10359;53.596;22.520;2022-09-09T06:03:55;11.10;99.90
20400;DHT22;10359;53.596;22.520;2022-09-09T06:06:25;11.20;99.90
20400;DHT22;10359;53.596;22.520;2022-09-09T06:08:55;11.20;99.90
20400;DHT22;10359;53.596;22.520;2022-09-09T06:11:26;11.20;99.90
20400;DHT22;10359;53.596;22.520;2022-09-09T06:14:00;11.20;99.90
20400;DHT22;10359;53.596;22.520;2022-09-09T06:16:29;11.20;99.90
20400;DHT22;10359;53.596;22.520;2022-09-09T06:19:00;11.20;99.90
20400;DHT22;10359;53.596;22.520;2022-09-09T06:21:31;11.20;99.90
20400;DHT22;10359;53.596;22.520;2022-09-09T06:24:01;11.30;99.90
20400;DHT22;10359;53.596;22.520;2022-09-09T06:26:32;11.30;99.90
20400;DHT22;10359;53.596;22.520;2022-09-09T06:29:03;11.30;99.90
20400;DHT22;10359;53.596;22.520;2022-09-09T06:31:34;11.30;99.90
20400;DHT22;10359;53.596;22.520;2022-09-09T06:34:05;11.40;99.90
20400;DHT22;10359;53.596;22.520;2022-09-09T06:36:36;11.40;99.90
20400;DHT22;10359;53.596;22.520;2022-09-09T06:39:06;11.40;99.90
20400;DHT22;10359;53.596;22.520;2022-09-09T06:41:41;11.40;99.90
20400;DHT22;10359;53.596;22.520;2022-09-09T06:44:12;11.30;99.90
20400;DHT22;10359;53.596;22.520;2022-09-09T06:46:42;11.40;99.90
20400;DHT22;10359;53.596;22.520;2022-09-09T06:49:15;11.50;99.90
20400;DHT22;10359;53.596;22.520;2022-09-09T06:51:44;11.40;99.90
20400;DHT22;10359;53.596;22.520;2022-09-09T06:54:13;11.40;99.90
20400;DHT22;10359;53.596;22.520;2022-09-09T06:56:43;11.40;99.90
20400;DHT22;10359;53.596;22.520;2022-09-09T06:59:15;11.40;99.90
20400;DHT22;10359;53.596;22.520;2022-09-09T07:01:44;11.40;99.90
20400;DHT22;10359;53.596;22.520;2022-09-09T07:04:19;11.40;99.90
20400;DHT22;10359;53.596;22.520;2022-09-09T07:06:48;11.40;99.90
20400;DHT22;10359;53.596;22.520;2022-09-09T07:09:17;11.30;99.90
20400;DHT22;10359;53.596;22.520;2022-09-09T07:11:48;11.30;99.90
20400;DHT22;10359;53.596;22.520;2022-09-09T07:14:19;11.30;99.90
20400;DHT22;10359;53.596;22.520;2022-09-09T07:16:49;11.40;99.90
20400;DHT22;10359;53.596;22.520;2022-09-09T07:19:20;11.30;99.90
20400;DHT22;10359;53.596;22.520;2022-09-09T07:21:49;11.30;99.90
20400;DHT22;10359;53.596;22.520;2022-09-09T07:24:18;11.20;99.90
20400;DHT22;10359;53.596;22.520;2022-09-09T07:26:47;11.30;99.90
20400;DHT22;10359;53.596;22.520;2022-09-09T07:29:16;11.40;99.90
20400;DHT22;10359;53.596;22.520;2022-09-09T07:31:48;11.60;99.90
20400;DHT22;10359;53.596;22.520;2022-09-09T07:34:17;11.60;99.90
20400;DHT22;10359;53.596;22.520;2022-09-09T07:36:46;11.60;99.90
20400;DHT22;10359;53.596;22.520;2022-09-09T07:39:16;11.70;99.90
20400;DHT22;10359;53.596;22.520;2022-09-09T07:41:46;11.60;99.90
20400;DHT22;10359;53.596;22.520;2022-09-09T07:44:18;11.80;99.90
20400;DHT22;10359;53.596;22.520;2022-09-09T07:46:50;12.00;99.90
20400;DHT22;10359;53.596;22.520;2022-09-09T07:49:19;12.10;99.90
20400;DHT22;10359;53.596;22.520;2022-09-09T07:51:55;12.30;99.90
20400;DHT22;10359;53.596;22.520;2022-09-09T07:54:25;12.20;99.90
20400;DHT22;10359;53.596;22.520;2022-09-09T07:57:01;12.10;99.90
20400;DHT22;10359;53.596;22.520;2022-09-09T07:59:31;12.00;99.90
20400;DHT22;10359;53.596;22.520;2022-09-09T08:02:02;11.90;99.90
20400;DHT22;10359;53.596;22.520;2022-09-09T08:04:31;12.00;99.90
20400;DHT22;10359;53.596;22.520;2022-09-09T08:07:01;12.10;99.90
20400;DHT22;10359;53.596;22.520;2022-09-09T08:09:30;12.20;99.90
20400;DHT22;10359;53.596;22.520;2022-09-09T08:12:01;12.10;99.90
20400;DHT22;10359;53.596;22.520;2022-09-09T08:14:30;12.00;99.90
20400;DHT22;10359;53.596;22.520;2022-09-09T08:16:59;11.90;99.90
20400;DHT22;10359;53.596;22.520;2022-09-09T08:19:30;11.90;99.90
20400;DHT22;10359;53.596;22.520;2022-09-09T08:22:01;11.90;99.90
20400;DHT22;10359;53.596;22.520;2022-09-09T08:24:30;12.00;99.90
20400;DHT22;10359;53.596;22.520;2022-09-09T08:26:59;12.00;99.90
20400;DHT22;10359;53.596;22.520;2022-09-09T08:29:28;12.00;99.90
20400;DHT22;10359;53.596;22.520;2022-09-09T08:31:58;12.00;99.90
20400;DHT22;10359;53.596;22.520;2022-09-09T08:34:28;12.10;99.90
20400;DHT22;10359;53.596;22.520;2022-09-09T08:36:58;12.20;99.90
20400;DHT22;10359;53.596;22.520;2022-09-09T08:39:27;12.40;99.90
20400;DHT22;10359;53.596;22.520;2022-09-09T08:45:19;12.40;99.90
20400;DHT22;10359;53.596;22.520;2022-09-09T08:47:59;12.20;99.90
20400;DHT22;10359;53.596;22.520;2022-09-09T08:50:35;12.30;99.90
20400;DHT22;10359;53.596;22.520;2022-09-09T08:53:10;12.20;99.90
20400;DHT22;10359;53.596;22.520;2022-09-09T08:55:43;12.40;99.90
20400;DHT22;10359;53.596;22.520;2022-09-09T08:58:16;12.40;99.90
20400;DHT22;10359;53.596;22.520;2022-09-09T09:01:00;12.70;99.90
20400;DHT22;10359;53.596;22.520;2022-09-09T09:03:35;12.90;99.90
20400;DHT22;10359;53.596;22.520;2022-09-09T09:06:22;12.70;99.90
20400;DHT22;10359;53.596;22.520;2022-09-09T09:08:59;13.00;99.90
20400;DHT22;10359;53.596;22.520;2022-09-09T09:11:35;13.00;99.90
20400;DHT22;10359;53.596;22.520;2022-09-09T09:14:11;13.10;99.90
20400;DHT22;10359;53.596;22.520;2022-09-09T09:16:47;13.10;99.90
20400;DHT22;10359;53.596;22.520;2022-09-09T09:19:17;13.00;99.90
20400;DHT22;10359;53.596;22.520;2022-09-09T09:21:54;13.00;99.90
20400;DHT22;10359;53.596;22.520;2022-09-09T09:24:29;13.00;99.90
20400;DHT22;10359;53.596;22.520;2022-09-09T09:27:04;13.00;99.90
20400;DHT22;10359;53.596;22.520;2022-09-09T09:29:38;12.90;99.90
20400;DHT22;10359;53.596;22.520;2022-09-09T09:32:33;12.90;99.90
20400;DHT22;10359;53.596;22.520;2022-09-09T09:35:09;13.00;99.90
20400;DHT22;10359;53.596;22.520;2022-09-09T09:37:42;13.00;99.90
20400;DHT22;10359;53.596;22.520;2022-09-09T09:40:32;12.90;99.90
20400;DHT22;10359;53.596;22.520;2022-09-09T09:43:01;12.80;99.90
20400;DHT22;10359;53.596;22.520;2022-09-09T09:45:41;12.90;99.90
20400;DHT22;10359;53.596;22.520;2022-09-09T09:48:31;12.90;99.90
20400;DHT22;10359;53.596;22.520;2022-09-09T09:51:02;13.10;99.90
20400;DHT22;10359;53.596;22.520;2022-09-09T09:53:38;13.00;99.90
20400;DHT22;10359;53.596;22.520;2022-09-09T09:56:09;13.10;99.90
20400;DHT22;10359;53.596;22.520;2022-09-09T09:58:49;13.10;99.90
20400;DHT22;10359;53.596;22.520;2022-09-09T10:01:22;13.20;99.90
20400;DHT22;10359;53.596;22.520;2022-09-09T10:03:53;13.10;99.90
20400;DHT22;10359;53.596;22.520;2022-09-09T10:06:34;12.90;99.90
20400;DHT22;10359;53.596;22.520;2022-09-09T10:09:22;13.00;99.90
20400;DHT22;10359;53.596;22.520;2022-09-09T10:11:57;13.00;99.90
20400;DHT22;10359;53.596;22.520;2022-09-09T10:14:32;12.70;99.90
20400;DHT22;10359;53.596;22.520;2022-09-09T10:17:14;12.60;99.90
20400;DHT22;10359;53.596;22.520;2022-09-09T10:19:55;12.60;99.90
20400;DHT22;10359;53.596;22.520;2022-09-09T10:22:27;12.50;99.90
20400;DHT22;10359;53.596;22.520;2022-09-09T10:25:24;12.50;99.90
20400;DHT22;10359;53.596;22.520;2022-09-09T10:28:16;12.30;99.90
20400;DHT22;10359;53.596;22.520;2022-09-09T10:30:59;12.70;99.90
20400;DHT22;10359;53.596;22.520;2022-09-09T10:33:37;12.60;99.90
20400;DHT22;10359;53.596;22.520;2022-09-09T10:36:22;12.60;99.90
20400;DHT22;10359;53.596;22.520;2022-09-09T10:38:57;12.50;99.90
20400;DHT22;10359;53.596;22.520;2022-09-09T10:41:54;12.50;99.90
20400;DHT22;10359;53.596;22.520;2022-09-09T10:44:32;12.50;99.90
20400;DHT22;10359;53.596;22.520;2022-09-09T10:47:26;12.50;99.90
20400;DHT22;10359;53.596;22.520;2022-09-09T10:50:10;12.30;99.90
20400;DHT22;10359;53.596;22.520;2022-09-09T10:52:49;12.40;99.90
20400;DHT22;10359;53.596;22.520;2022-09-09T10:55:23;12.50;99.90
20400;DHT22;10359;53.596;22.520;2022-09-09T10:57:58;12.80;99.90
20400;DHT22;10359;53.596;22.520;2022-09-09T11:00:37;13.00;99.90
20400;DHT22;10359;53.596;22.520;2022-09-09T11:03:17;12.80;99.90
20400;DHT22;10359;53.596;22.520;2022-09-09T11:05:50;13.00;99.90
20400;DHT22;10359;53.596;22.520;2022-09-09T11:08:21;13.00;99.90
20400;DHT22;10359;53.596;22.520;2022-09-09T11:10:55;12.80;99.90
20400;DHT22;10359;53.596;22.520;2022-09-09T11:13:33;12.90;99.90
20400;DHT22;10359;53.596;22.520;2022-09-09T11:16:11;12.90;99.90
20400;DHT22;10359;53.596;22.520;2022-09-09T11:18:45;13.00;99.90
20400;DHT22;10359;53.596;22.520;2022-09-09T11:21:18;13.00;99.90
20400;DHT22;10359;53.596;22.520;2022-09-09T11:23:54;13.20;99.90
20400;DHT22;10359;53.596;22.520;2022-09-09T11:26:30;13.20;99.90
20400;DHT22;10359;53.596;22.520;2022-09-09T11:32:15;13.20;99.90
20400;DHT22;10359;53.596;22.520;2022-09-09T11:34:54;13.40;99.90
20400;DHT22;10359;53.596;22.520;2022-09-09T11:37:59;13.40;99.90
20400;DHT22;10359;53.596;22.520;2022-09-09T11:40:31;13.30;99.90
20400;DHT22;10359;53.596;22.520;2022-09-09T11:43:04;13.60;99.90
20400;DHT22;10359;53.596;22.520;2022-09-09T11:45:36;13.40;99.90
20400;DHT22;10359;53.596;22.520;2022-09-09T11:48:05;13.60;99.90
20400;DHT22;10359;53.596;22.520;2022-09-09T11:51:02;13.50;99.90
20400;DHT22;10359;53.596;22.520;2022-09-09T11:53:32;13.50;99.90
20400;DHT22;10359;53.596;22.520;2022-09-09T11:56:12;13.30;99.90
20400;DHT22;10359;53.596;22.520;2022-09-09T11:58:44;13.30;99.90
20400;DHT22;10359;53.596;22.520;2022-09-09T12:01:35;13.10;99.90
20400;DHT22;10359;53.596;22.520;2022-09-09T12:04:32;13.20;99.90
20400;DHT22;10359;53.596;22.520;2022-09-09T12:07:20;13.30;99.90
20400;DHT22;10359;53.596;22.520;2022-09-09T12:09:54;13.30;99.90
20400;DHT22;10359;53.596;22.520;2022-09-09T12:12:28;13.20;99.90
20400;DHT22;10359;53.596;22.520;2022-09-09T12:15:16;13.30;99.90
20400;DHT22;10359;53.596;22.520;2022-09-09T12:17:51;13.10;99.90
20400;DHT22;10359;53.596;22.520;2022-09-09T12:20:22;13.10;99.90
20400;DHT22;10359;53.596;22.520;2022-09-09T12:23:04;13.00;99.90
20400;DHT22;10359;53.596;22.520;2022-09-09T12:25:47;13.00;99.90
20400;DHT22;10359;53.596;22.520;2022-09-09T12:28:19;12.90;99.90
20400;DHT22;10359;53.596;22.520;2022-09-09T12:30:55;13.00;99.90
20400;DHT22;10359;53.596;22.520;2022-09-09T12:33:34;13.00;99.90
20400;DHT22;10359;53.596;22.520;2022-09-09T12:36:04;13.10;99.90
20400;DHT22;10359;53.596;22.520;2022-09-09T12:38:39;12.90;99.90
20400;DHT22;10359;53.596;22.520;2022-09-09T12:41:19;13.00;99.90
20400;DHT22;10359;53.596;22.520;2022-09-09T12:43:49;13.00;99.90
20400;DHT22;10359;53.596;22.520;2022-09-09T12:49:29;12.90;99.90
20400;DHT22;10359;53.596;22.520;2022-09-09T12:52:03;13.00;99.90
20400;DHT22;10359;53.596;22.520;2022-09-09T12:54:35;12.90;99.90
20400;DHT22;10359;53.596;22.520;2022-09-09T12:57:05;13.10;99.90
20400;DHT22;10359;53.596;22.520;2022-09-09T12:59:39;13.10;99.90
20400;DHT22;10359;53.596;22.520;2022-09-09T13:02:18;13.00;99.90
20400;DHT22;10359;53.596;22.520;2022-09-09T13:04:50;13.20;99.90
20400;DHT22;10359;53.596;22.520;2022-09-09T13:07:19;13.40;99.90
20400;DHT22;10359;53.596;22.520;2022-09-09T13:09:49;13.50;99.90
20400;DHT22;10359;53.596;22.520;2022-09-09T13:12:19;13.50;99.90
20400;DHT22;10359;53.596;22.520;2022-09-09T13:15:24;13.30;99.90
20400;DHT22;10359;53.596;22.520;2022-09-09T13:17:57;13.20;99.90
20400;DHT22;10359;53.596;22.520;2022-09-09T13:20:29;13.20;99.90
20400;DHT22;10359;53.596;22.520;2022-09-09T13:22:58;13.30;99.90
20400;DHT22;10359;53.596;22.520;2022-09-09T13:25:28;13.20;99.90
20400;DHT22;10359;53.596;22.520;2022-09-09T13:27:59;13.30;99.90
20400;DHT22;10359;53.596;22.520;2022-09-09T13:30:31;13.40;99.90
20400;DHT22;10359;53.596;22.520;2022-09-09T13:33:17;13.40;99.90
20400;DHT22;10359;53.596;22.520;2022-09-09T13:35:50;13.50;99.90
20400;DHT22;10359;53.596;22.520;2022-09-09T13:38:21;13.40;99.90
20400;DHT22;10359;53.596;22.520;2022-09-09T13:40:56;13.20;99.90
20400;DHT22;10359;53.596;22.520;2022-09-09T13:43:27;13.10;99.90
20400;DHT22;10359;53.596;22.520;2022-09-09T13:45:58;13.00;99.90
20400;DHT22;10359;53.596;22.520;2022-09-09T13:48:28;13.00;99.90
20400;DHT22;10359;53.596;22.520;2022-09-09T13:51:02;13.00;99.90
20400;DHT22;10359;53.596;22.520;2022-09-09T13:53:32;12.80;99.90
20400;DHT22;10359;53.596;22.520;2022-09-09T13:56:02;12.80;99.90
20400;DHT22;10359;53.596;22.520;2022-09-09T13:58:31;12.80;99.90
20400;DHT22;10359;53.596;22.520;2022-09-09T14:01:00;12.80;99.90
20400;DHT22;10359;53.596;22.520;2022-09-09T14:03:29;12.70;99.90
20400;DHT22;10359;53.596;22.520;2022-09-09T14:06:00;12.70;99.90
20400;DHT22;10359;53.596;22.520;2022-09-09T14:08:29;12.70;99.90
20400;DHT22;10359;53.596;22.520;2022-09-09T14:11:04;12.50;99.90
20400;DHT22;10359;53.596;22.520;2022-09-09T14:13:33;12.60;99.90
20400;DHT22;10359;53.596;22.520;2022-09-09T14:16:05;12.70;99.90
20400;DHT22;10359;53.596;22.520;2022-09-09T14:18:34;12.70;99.90
20400;DHT22;10359;53.596;22.520;2022-09-09T14:21:24;12.70;99.90
20400;DHT22;10359;53.596;22.520;2022-09-09T14:23:59;12.70;99.90
20400;DHT22;10359;53.596;22.520;2022-09-09T14:26:28;12.60;99.90
20400;DHT22;10359;53.596;22.520;2022-09-09T14:28:57;12.60;99.90
20400;DHT22;10359;53.596;22.520;2022-09-09T14:31:28;12.50;99.90
20400;DHT22;10359;53.596;22.520;2022-09-09T14:33:57;12.50;99.90
20400;DHT22;10359;53.596;22.520;2022-09-09T14:36:27;12.60;99.90
20400;DHT22;10359;53.596;22.520;2022-09-09T14:38:57;12.40;99.90
20400;DHT22;10359;53.596;22.520;2022-09-09T14:41:26;12.40;99.90
20400;DHT22;10359;53.596;22.520;2022-09-09T14:43:56;12.40;99.90
20400;DHT22;10359;53.596;22.520;2022-09-09T14:46:27;12.30;99.90
20400;DHT22;10359;53.596;22.520;2022-09-09T14:48:55;12.30;99.90
20400;DHT22;10359;53.596;22.520;2022-09-09T14:51:26;12.20;99.90
20400;DHT22;10359;53.596;22.520;2022-09-09T14:53:59;12.10;99.90
20400;DHT22;10359;53.596;22.520;2022-09-09T14:56:30;12.10;99.90
20400;DHT22;10359;53.596;22.520;2022-09-09T14:59:02;12.00;99.90
20400;DHT22;10359;53.596;22.520;2022-09-09T15:01:31;11.90;99.90
20400;DHT22;10359;53.596;22.520;2022-09-09T15:04:03;11.90;99.90
20400;DHT22;10359;53.596;22.520;2022-09-09T15:06:35;12.00;99.90
20400;DHT22;10359;53.596;22.520;2022-09-09T15:09:05;12.10;99.90
20400;DHT22;10359;53.596;22.520;2022-09-09T15:11:37;12.00;99.90
20400;DHT22;10359;53.596;22.520;2022-09-09T15:14:07;12.10;99.90
20400;DHT22;10359;53.596;22.520;2022-09-09T15:16:36;12.00;99.90
20400;DHT22;10359;53.596;22.520;2022-09-09T15:19:05;12.00;99.90
20400;DHT22;10359;53.596;22.520;2022-09-09T15:21:36;12.00;99.90
20400;DHT22;10359;53.596;22.520;2022-09-09T15:24:06;11.80;99.90
20400;DHT22;10359;53.596;22.520;2022-09-09T15:26:36;11.90;99.90
20400;DHT22;10359;53.596;22.520;2022-09-09T15:29:07;11.80;99.90
20400;DHT22;10359;53.596;22.520;2022-09-09T15:31:36;11.70;99.90
20400;DHT22;10359;53.596;22.520;2022-09-09T15:34:06;11.70;99.90
20400;DHT22;10359;53.596;22.520;2022-09-09T15:36:38;11.80;99.90
20400;DHT22;10359;53.596;22.520;2022-09-09T15:39:08;11.90;99.90
20400;DHT22;10359;53.596;22.520;2022-09-09T15:41:40;11.90;99.90
20400;DHT22;10359;53.596;22.520;2022-09-09T15:44:09;12.00;99.90
20400;DHT22;10359;53.596;22.520;2022-09-09T15:46:40;12.00;99.90
20400;DHT22;10359;53.596;22.520;2022-09-09T15:49:11;12.00;99.90
20400;DHT22;10359;53.596;22.520;2022-09-09T15:51:43;11.90;99.90
20400;DHT22;10359;53.596;22.520;2022-09-09T15:54:15;11.80;99.90
20400;DHT22;10359;53.596;22.520;2022-09-09T15:56:46;11.80;99.90
20400;DHT22;10359;53.596;22.520;2022-09-09T15:59:16;11.90;99.90
20400;DHT22;10359;53.596;22.520;2022-09-09T16:01:45;11.90;99.90
20400;DHT22;10359;53.596;22.520;2022-09-09T16:04:14;11.80;99.90
20400;DHT22;10359;53.596;22.520;2022-09-09T16:06:52;11.80;99.90
20400;DHT22;10359;53.596;22.520;2022-09-09T16:09:22;11.90;99.90